Sunday, February 17, 2019, 3:15 PM EST
Back to Local

KAQW, N Adams Harriman-and-west

Location: North Adams, MA, United States Lat: 42.7
Local Time: 3:15 PM EST (20:15 GMT) Lon: -73.167
Time Zone: US/Eastern Elev: 652 ft

Show me the last for .
Show Decoded

2019-02-17 14:52 METAR KAQW 171952Z AUTO 28007KT 10SM CLR M01/M13 A3005 RMK AO2 SLP186 T10061133
                 =
2019-02-17 13:52 METAR KAQW 171852Z AUTO 33005KT 10SM CLR M01/M13 A3008 RMK AO2 SLP197 T10111133
                 =
2019-02-17 12:52 METAR KAQW 171752Z AUTO VRB04KT 10SM CLR M02/M12 A3007 RMK AO2 SLP192 T10221122
                 11022 21106 58023 =
2019-02-17 11:52 METAR KAQW 171652Z AUTO VRB05KT 10SM CLR M03/M12 A3009 RMK AO2 SLP200 T10281122
                 =
2019-02-17 10:52 METAR KAQW 171552Z AUTO 28007KT 10SM CLR M04/M12 A3012 RMK AO2 SLP210 T10441122
                 =
2019-02-17 09:52 METAR KAQW 171452Z AUTO 27005KT 10SM CLR M06/M12 A3014 RMK AO2 SLP216 T10611122
                 50015 =
2019-02-17 08:52 METAR KAQW 171352Z AUTO 27008KT 10SM CLR M07/M12 A3014 RMK AO2 SLP218 T10721122
                 =
2019-02-17 07:52 METAR KAQW 171252Z AUTO 26005KT 10SM CLR M08/M12 A3013 RMK AO2 SLP216 T10831122
                 =
2019-02-17 06:52 METAR KAQW 171152Z AUTO 27006KT 10SM CLR M11/M13 A3009 RMK AO2 SLP201 T11061128
                 11067 21106 51014 =
2019-02-17 05:52 METAR KAQW 171052Z AUTO 28005KT 10SM CLR M09/M13 A3008 RMK AO2 SLP198 T10891128
                 =
2019-02-17 04:52 METAR KAQW 170952Z AUTO 25009KT 10SM CLR M08/M12 A3008 RMK AO2 SLP195 T10831122
                 =
2019-02-17 03:52 METAR KAQW 170852Z AUTO 23007KT 10SM CLR M08/M12 A3005 RMK AO2 SLP186 T10781117
                 58000 =
2019-02-17 02:52 METAR KAQW 170752Z AUTO 29004KT 10SM CLR M09/M12 A3005 RMK AO2 SLP187 T10891117
                 =
2019-02-17 01:52 METAR KAQW 170652Z AUTO 29006KT 10SM CLR M08/M12 A3005 RMK AO2 SLP187 T10831117
                 =
2019-02-17 00:52 METAR KAQW 170552Z AUTO 27004KT 10SM CLR M07/M11 A3005 RMK AO2 SLP185 T10671111
                 11039 21067 53017 =
2019-02-16 23:52 METAR KAQW 170452Z AUTO 23009KT 10SM CLR M06/M11 A3002 RMK AO2 SLP176 T10611106
                 400001061 =
2019-02-16 22:52 METAR KAQW 170352Z AUTO 26006KT 10SM CLR M06/M11 A3000 RMK AO2 SLP168 T10561106
                 =
2019-02-16 21:52 METAR KAQW 170252Z AUTO 25006KT 10SM OVC042 M05/M10 A3000 RMK AO2 SLP168
                 T10501100 53021 =
2019-02-16 20:52 METAR KAQW 170152Z AUTO 25006KT 10SM SCT042 M05/M10 A2997 RMK AO2 SLP160
                 T10501100 =
2019-02-16 19:52 METAR KAQW 170052Z AUTO 26009KT 10SM BKN040 M04/M10 A2994 RMK AO2 SLP149
                 T10391100 =
2019-02-16 18:52 METAR KAQW 162352Z AUTO 27009KT 10SM OVC044 M03/M09 A2994 RMK AO2 SLP147
                 T10331094 10000 21039 53025 =
2019-02-16 17:52 METAR KAQW 162252Z AUTO 27009KT 10SM CLR M03/M09 A2991 RMK AO2 SLP138 T10281094
                 =
2019-02-16 16:52 METAR KAQW 162152Z AUTO 27008KT 10SM SCT039 M02/M09 A2988 RMK AO2 SLP127
                 T10171089 =
2019-02-16 15:52 METAR KAQW 162052Z AUTO 25013KT 10SM BKN043 M01/M09 A2986 RMK AO2 SLP121
                 T10111089 53011 =

Support USWX by starting your Amazon purchase here.